Terminal Aerodrome Forecast
Issued by NWS

Current Version | Previous Version | Graphics & Text | Print | Product List | Glossary On
Versions: 1 2 3 4 5 6 7 8 9 10 11 12 13 14 15 16 17
038
FTUS41 KILN 220523
TAFLCK
TAF
KLCK 220523Z 2206/2306 00000KT P6SM SKC
     FM220700 00000KT 4SM BR SKC
      TEMPO 2209/2213 2SM BR
     FM221400 07004KT P6SM FEW050
     FM222300 00000KT P6SM SKC=

USA.gov is the U.S. government's official web portal to all federal, state and local government web resources and services.